Time,TemperatureF,DewpointF,PressureIn,WindDirection,WindDirectionDegrees,WindSpeedMPH,WindSpeedGustMPH,Humidity,HourlyPrecipIn,Conditions,Clouds,dailyrainin,SoftwareType,DateUTC
2013-06-23 00:01:00,67.4,63.7,30.22,North,-999,0.0,0.0,88,0.00,,,-99.99,WeatherLink 5.7,2013-06-23 04:01:00,
2013-06-23 00:11:00,67.0,63.6,30.22,North,-999,0.0,0.0,89,0.00,,,-99.99,WeatherLink 5.7,2013-06-23 04:11:00,
2013-06-23 00:21:00,66.5,63.2,30.22,North,-999,0.0,0.0,89,0.00,,,-99.99,WeatherLink 5.7,2013-06-23 04:21:00,
2013-06-23 00:31:00,66.2,63.2,30.22,North,-999,0.0,0.0,90,0.00,,,-99.99,WeatherLink 5.7,2013-06-23 04:31:00,
2013-06-23 00:41:00,65.8,62.8,30.22,North,-999,0.0,0.0,90,0.00,,,-99.99,WeatherLink 5.7,2013-06-23 04:41:00,
2013-06-23 00:51:00,65.3,62.6,30.21,North,-999,0.0,0.0,91,0.00,,,-99.99,WeatherLink 5.7,2013-06-23 04:51:00,
2013-06-23 01:01:00,65.1,62.7,30.23,North,-999,0.0,0.0,92,0.00,,,-99.99,WeatherLink 5.7,2013-06-23 05:01:00,
2013-06-23 01:11:00,65.0,62.3,30.22,North,-999,0.0,0.0,91,0.00,,,-99.99,WeatherLink 5.7,2013-06-23 05:11:00,
2013-06-23 01:21:00,64.9,62.2,30.22,North,-999,0.0,0.0,91,0.00,,,-99.99,WeatherLink 5.7,2013-06-23 05:21:00,
2013-06-23 01:31:00,64.8,62.4,30.22,North,-999,0.0,0.0,92,0.00,,,-99.99,WeatherLink 5.7,2013-06-23 05:31:00,
2013-06-23 01:41:00,64.9,62.5,30.22,North,-999,0.0,0.0,92,0.00,,,-99.99,WeatherLink 5.7,2013-06-23 05:41:00,
2013-06-23 01:51:00,65.0,62.6,30.22,North,-999,0.0,0.0,92,0.00,,,-99.99,WeatherLink 5.7,2013-06-23 05:51:00,
2013-06-23 02:01:00,64.8,62.4,30.22,North,-999,0.0,0.0,92,0.00,,,-99.99,WeatherLink 5.7,2013-06-23 06:01:00,
2013-06-23 02:11:00,64.7,62.3,30.21,North,-999,0.0,0.0,92,0.00,,,-99.99,WeatherLink 5.7,2013-06-23 06:11:00,
2013-06-23 02:21:00,64.5,62.1,30.22,North,-999,0.0,0.0,92,0.00,,,-99.99,WeatherLink 5.7,2013-06-23 06:21:00,
2013-06-23 02:31:00,64.3,61.9,30.22,North,-999,0.0,0.0,92,0.00,,,-99.99,WeatherLink 5.7,2013-06-23 06:31:00,
2013-06-23 02:41:00,64.0,61.6,30.21,North,-999,0.0,0.0,92,0.00,,,-99.99,WeatherLink 5.7,2013-06-23 06:41:00,
2013-06-23 02:52:00,63.8,61.7,30.20,North,-999,0.0,0.0,93,0.00,,,-99.99,WeatherLink 5.7,2013-06-23 06:52:00,
2013-06-23 03:01:00,63.6,61.5,30.20,North,-999,0.0,0.0,93,0.00,,,-99.99,WeatherLink 5.7,2013-06-23 07:01:00,
2013-06-23 03:11:00,63.4,61.3,30.20,North,-999,0.0,0.0,93,0.00,,,-99.99,WeatherLink 5.7,2013-06-23 07:11:00,
2013-06-23 03:21:00,63.2,61.1,30.20,North,-999,0.0,0.0,93,0.00,,,-99.99,WeatherLink 5.7,2013-06-23 07:21:00,
2013-06-23 03:31:00,63.1,61.0,30.20,North,-999,0.0,0.0,93,0.00,,,-99.99,WeatherLink 5.7,2013-06-23 07:31:00,
2013-06-23 03:41:00,63.1,61.3,30.19,North,-999,0.0,0.0,94,0.00,,,-99.99,WeatherLink 5.7,2013-06-23 07:41:00,
2013-06-23 03:51:00,63.3,61.5,30.19,North,-999,0.0,0.0,94,0.00,,,-99.99,WeatherLink 5.7,2013-06-23 07:51:00,
2013-06-23 04:01:00,63.4,61.3,30.20,North,-999,0.0,0.0,93,0.00,,,-99.99,WeatherLink 5.7,2013-06-23 08:01:00,
2013-06-23 04:11:00,63.4,61.6,30.19,North,-999,0.0,0.0,94,0.00,,,-99.99,WeatherLink 5.7,2013-06-23 08:11:00,
2013-06-23 04:21:00,63.6,61.8,30.20,North,-999,0.0,0.0,94,0.00,,,-99.99,WeatherLink 5.7,2013-06-23 08:21:00,
2013-06-23 04:31:00,63.8,62.0,30.19,North,-999,0.0,0.0,94,0.00,,,-99.99,WeatherLink 5.7,2013-06-23 08:31:00,
2013-06-23 04:41:00,63.9,62.1,30.19,North,-999,0.0,0.0,94,0.00,,,-99.99,WeatherLink 5.7,2013-06-23 08:41:00,
2013-06-23 04:51:00,63.9,62.1,30.19,North,-999,0.0,0.0,94,0.00,,,-99.99,WeatherLink 5.7,2013-06-23 08:51:00,
2013-06-23 05:01:00,63.8,61.7,30.20,North,-999,0.0,0.0,93,0.00,,,-99.99,WeatherLink 5.7,2013-06-23 09:01:00,
2013-06-23 05:11:00,63.9,62.1,30.20,North,-999,0.0,0.0,94,0.00,,,-99.99,WeatherLink 5.7,2013-06-23 09:11:00,
2013-06-23 05:21:00,63.7,61.6,30.20,North,-999,0.0,0.0,93,0.00,,,-99.99,WeatherLink 5.7,2013-06-23 09:21:00,
2013-06-23 05:31:00,63.6,61.8,30.20,North,-999,0.0,0.0,94,0.00,,,-99.99,WeatherLink 5.7,2013-06-23 09:31:00,
2013-06-23 05:41:00,63.6,61.8,30.20,North,-999,0.0,0.0,94,0.00,,,-99.99,WeatherLink 5.7,2013-06-23 09:41:00,
2013-06-23 05:51:00,63.6,61.5,30.20,North,-999,0.0,0.0,93,0.00,,,-99.99,WeatherLink 5.7,2013-06-23 09:51:00,
2013-06-23 06:01:00,63.3,61.2,30.20,North,-999,0.0,0.0,93,0.00,,,-99.99,WeatherLink 5.7,2013-06-23 10:01:00,
2013-06-23 06:11:00,63.1,61.0,30.21,North,-999,0.0,0.0,93,0.00,,,-99.99,WeatherLink 5.7,2013-06-23 10:11:00,
2013-06-23 06:21:00,63.0,60.9,30.22,North,-999,0.0,0.0,93,0.00,,,-99.99,WeatherLink 5.7,2013-06-23 10:21:00,
2013-06-23 06:31:00,62.9,60.8,30.21,North,-999,0.0,0.0,93,0.00,,,-99.99,WeatherLink 5.7,2013-06-23 10:31:00,
2013-06-23 06:41:00,63.0,61.2,30.21,North,-999,0.0,0.0,94,0.00,,,-99.99,WeatherLink 5.7,2013-06-23 10:41:00,
2013-06-23 06:51:00,63.2,61.4,30.21,North,-999,0.0,0.0,94,0.00,,,-99.99,WeatherLink 5.7,2013-06-23 10:51:00,
2013-06-23 07:01:00,63.5,61.7,30.22,North,-999,0.0,0.0,94,0.00,,,-99.99,WeatherLink 5.7,2013-06-23 11:01:00,
2013-06-23 07:11:00,64.0,62.2,30.22,North,-999,0.0,0.0,94,0.00,,,-99.99,WeatherLink 5.7,2013-06-23 11:11:00,
2013-06-23 07:21:00,64.5,63.0,30.22,North,-999,0.0,0.0,95,0.00,,,-99.99,WeatherLink 5.7,2013-06-23 11:21:00,
2013-06-23 07:31:00,65.0,63.5,30.22,North,-999,0.0,0.0,95,0.00,,,-99.99,WeatherLink 5.7,2013-06-23 11:31:00,
2013-06-23 07:41:00,65.5,64.0,30.23,North,-999,0.0,0.0,95,0.00,,,-99.99,WeatherLink 5.7,2013-06-23 11:41:00,
2013-06-23 07:51:00,66.1,64.3,30.23,North,-999,0.0,0.0,94,0.00,,,-99.99,WeatherLink 5.7,2013-06-23 11:51:00,
2013-06-23 08:01:00,66.8,64.7,30.23,North,-999,0.0,0.0,93,0.00,,,-99.99,WeatherLink 5.7,2013-06-23 12:01:00,
2013-06-23 08:11:00,67.5,65.4,30.23,North,-999,0.0,0.0,93,0.00,,,-99.99,WeatherLink 5.7,2013-06-23 12:11:00,
2013-06-23 08:21:00,68.1,65.4,30.22,North,-999,0.0,0.0,91,0.00,,,-99.99,WeatherLink 5.7,2013-06-23 12:21:00,
2013-06-23 08:31:00,68.7,65.6,30.22,North,-999,0.0,0.0,90,0.00,,,-99.99,WeatherLink 5.7,2013-06-23 12:31:00,
2013-06-23 08:41:00,69.3,66.2,30.23,NE,45,0.0,1.0,90,0.00,,,-99.99,WeatherLink 5.7,2013-06-23 12:41:00,
2013-06-23 08:51:00,69.8,66.1,30.22,NE,45,0.0,1.0,88,0.00,,,-99.99,WeatherLink 5.7,2013-06-23 12:51:00,
2013-06-23 09:01:00,70.3,66.6,30.22,NE,45,0.0,1.0,88,0.00,,,-99.99,WeatherLink 5.7,2013-06-23 13:01:00,
2013-06-23 09:11:00,70.9,66.8,30.22,NE,45,0.0,1.0,87,0.00,,,-99.99,WeatherLink 5.7,2013-06-23 13:11:00,
2013-06-23 09:22:00,71.5,67.1,30.22,NE,45,0.0,2.0,86,0.00,,,-99.99,WeatherLink 5.7,2013-06-23 13:22:00,
2013-06-23 09:31:00,72.2,67.4,30.22,NE,45,0.0,1.0,85,0.00,,,-99.99,WeatherLink 5.7,2013-06-23 13:31:00,
2013-06-23 09:41:00,72.8,67.7,30.22,NE,45,0.0,1.0,84,0.00,,,-99.99,WeatherLink 5.7,2013-06-23 13:41:00,
2013-06-23 09:51:00,73.4,67.6,30.21,ENE,67,0.0,2.0,82,0.00,,,-99.99,WeatherLink 5.7,2013-06-23 13:51:00,
2013-06-23 10:01:00,74.1,67.5,30.21,ENE,67,0.0,2.0,80,0.00,,,-99.99,WeatherLink 5.7,2013-06-23 14:01:00,
2013-06-23 10:11:00,74.8,67.5,30.21,East,90,0.0,2.0,78,0.00,,,-99.99,WeatherLink 5.7,2013-06-23 14:11:00,
2013-06-23 10:21:00,75.2,67.5,30.20,ENE,67,1.0,3.0,77,0.00,,,-99.99,WeatherLink 5.7,2013-06-23 14:21:00,
2013-06-23 10:31:00,75.6,67.9,30.20,NNE,22,0.0,2.0,77,0.00,,,-99.99,WeatherLink 5.7,2013-06-23 14:31:00,
2013-06-23 10:41:00,76.1,68.7,30.20,NNE,22,0.0,1.0,78,0.00,,,-99.99,WeatherLink 5.7,2013-06-23 14:41:00,
2013-06-23 10:51:00,76.6,68.8,30.20,NE,45,0.0,2.0,77,0.00,,,-99.99,WeatherLink 5.7,2013-06-23 14:51:00,
2013-06-23 11:01:00,77.0,68.5,30.20,NE,45,0.0,2.0,75,0.00,,,-99.99,WeatherLink 5.7,2013-06-23 15:01:00,
2013-06-23 11:11:00,77.4,68.5,30.20,NE,45,1.0,3.0,74,0.00,,,-99.99,WeatherLink 5.7,2013-06-23 15:11:00,
2013-06-23 11:21:00,77.8,68.8,30.20,NE,45,0.0,3.0,74,0.00,,,-99.99,WeatherLink 5.7,2013-06-23 15:21:00,
2013-06-23 11:31:00,78.2,68.8,30.20,North,0,1.0,3.0,73,0.00,,,-99.99,WeatherLink 5.7,2013-06-23 15:31:00,
2013-06-23 11:41:00,78.6,68.8,30.20,ENE,67,1.0,3.0,72,0.00,,,-99.99,WeatherLink 5.7,2013-06-23 15:41:00,
2013-06-23 11:51:00,79.0,69.2,30.19,East,90,1.0,3.0,72,0.00,,,-99.99,WeatherLink 5.7,2013-06-23 15:51:00,
2013-06-23 12:01:00,79.5,69.3,30.20,NNE,22,1.0,3.0,71,0.00,,,-99.99,WeatherLink 5.7,2013-06-23 16:01:00,
2013-06-23 12:11:00,79.9,70.1,30.19,ENE,67,0.0,2.0,72,0.00,,,-99.99,WeatherLink 5.7,2013-06-23 16:11:00,
2013-06-23 12:21:00,80.3,70.9,30.19,ENE,67,0.0,2.0,73,0.00,,,-99.99,WeatherLink 5.7,2013-06-23 16:21:00,
2013-06-23 12:31:00,80.4,70.9,30.19,ENE,67,0.0,2.0,73,0.00,,,-99.99,WeatherLink 5.7,2013-06-23 16:31:00,
2013-06-23 12:41:00,80.7,70.4,30.19,ENE,67,1.0,4.0,71,0.00,,,-99.99,WeatherLink 5.7,2013-06-23 16:41:00,
2013-06-23 12:51:00,80.9,70.2,30.18,ENE,67,1.0,4.0,70,0.00,,,-99.99,WeatherLink 5.7,2013-06-23 16:51:00,
2013-06-23 13:01:00,81.0,71.1,30.18,ENE,67,0.0,2.0,72,0.00,,,-99.99,WeatherLink 5.7,2013-06-23 17:01:00,
2013-06-23 13:11:00,81.3,70.6,30.18,NNE,22,1.0,3.0,70,0.00,,,-99.99,WeatherLink 5.7,2013-06-23 17:11:00,
2013-06-23 13:21:00,81.6,71.3,30.18,North,0,0.0,3.0,71,0.00,,,-99.99,WeatherLink 5.7,2013-06-23 17:21:00,
2013-06-23 13:31:00,81.5,71.6,30.17,North,0,0.0,1.0,72,0.00,,,-99.99,WeatherLink 5.7,2013-06-23 17:31:00,
2013-06-23 13:41:00,81.3,71.4,30.17,NE,45,0.0,3.0,72,0.00,,,-99.99,WeatherLink 5.7,2013-06-23 17:41:00,
2013-06-23 13:51:00,81.2,70.9,30.17,NE,45,0.0,2.0,71,0.00,,,-99.99,WeatherLink 5.7,2013-06-23 17:51:00,
2013-06-23 14:01:00,81.6,70.0,30.17,ENE,67,1.0,3.0,68,0.00,,,-99.99,WeatherLink 5.7,2013-06-23 18:01:00,
2013-06-23 14:11:00,81.9,70.7,30.16,ENE,67,0.0,3.0,69,0.00,,,-99.99,WeatherLink 5.7,2013-06-23 18:11:00,
2013-06-23 14:21:00,82.5,70.9,30.16,NE,45,1.0,3.0,68,0.00,,,-99.99,WeatherLink 5.7,2013-06-23 18:21:00,
2013-06-23 14:31:00,82.6,71.0,30.15,ENE,67,1.0,3.0,68,0.00,,,-99.99,WeatherLink 5.7,2013-06-23 18:31:00,
2013-06-23 14:41:00,83.0,71.3,30.16,NE,45,1.0,3.0,68,0.00,,,-99.99,WeatherLink 5.7,2013-06-23 18:41:00,
2013-06-23 14:51:00,83.2,70.7,30.15,NE,45,1.0,3.0,66,0.00,,,-99.99,WeatherLink 5.7,2013-06-23 18:51:00,
2013-06-23 15:01:00,83.7,72.0,30.15,ENE,67,1.0,3.0,68,0.00,,,-99.99,WeatherLink 5.7,2013-06-23 19:01:00,
2013-06-23 15:11:00,83.6,72.3,30.14,North,0,0.0,3.0,69,0.00,,,-99.99,WeatherLink 5.7,2013-06-23 19:11:00,
2013-06-23 15:21:00,83.5,71.4,30.14,NE,45,0.0,2.0,67,0.00,,,-99.99,WeatherLink 5.7,2013-06-23 19:21:00,
2013-06-23 15:31:00,82.9,71.7,30.14,NE,45,0.0,2.0,69,0.00,,,-99.99,WeatherLink 5.7,2013-06-23 19:31:00,
2013-06-23 15:41:00,82.8,71.2,30.13,NNE,22,0.0,2.0,68,0.00,,,-99.99,WeatherLink 5.7,2013-06-23 19:41:00,
2013-06-23 15:51:00,82.0,71.2,30.13,NNE,22,0.0,2.0,70,0.00,,,-99.99,WeatherLink 5.7,2013-06-23 19:51:00,
2013-06-23 16:01:00,81.7,71.4,30.13,North,-999,0.0,1.0,71,0.00,,,-99.99,WeatherLink 5.7,2013-06-23 20:01:00,
2013-06-23 16:11:00,81.6,70.9,30.12,NNE,22,0.0,3.0,70,0.00,,,-99.99,WeatherLink 5.7,2013-06-23 20:11:00,
2013-06-23 16:21:00,81.3,71.4,30.12,North,0,0.0,1.0,72,0.00,,,-99.99,WeatherLink 5.7,2013-06-23 20:21:00,
2013-06-23 16:31:00,80.9,71.0,30.13,North,0,0.0,2.0,72,0.00,,,-99.99,WeatherLink 5.7,2013-06-23 20:31:00,
2013-06-23 16:41:00,80.7,70.8,30.13,NNE,22,0.0,2.0,72,0.00,,,-99.99,WeatherLink 5.7,2013-06-23 20:41:00,
2013-06-23 16:51:00,80.6,71.1,30.12,North,0,0.0,2.0,73,0.00,,,-99.99,WeatherLink 5.7,2013-06-23 20:51:00,
2013-06-23 17:01:00,80.6,70.7,30.12,NNE,22,0.0,3.0,72,0.00,,,-99.99,WeatherLink 5.7,2013-06-23 21:01:00,
2013-06-23 17:11:00,80.8,70.9,30.12,NNE,22,0.0,2.0,72,0.00,,,-99.99,WeatherLink 5.7,2013-06-23 21:11:00,
2013-06-23 17:21:00,80.7,70.8,30.12,NNE,22,0.0,1.0,72,0.00,,,-99.99,WeatherLink 5.7,2013-06-23 21:21:00,
2013-06-23 17:31:00,80.2,71.2,30.12,North,-999,0.0,0.0,74,0.00,,,-99.99,WeatherLink 5.7,2013-06-23 21:31:00,
2013-06-23 17:41:00,79.6,71.4,30.12,NNE,22,0.0,2.0,76,0.00,,,-99.99,WeatherLink 5.7,2013-06-23 21:41:00,
2013-06-23 17:51:00,79.3,71.5,30.12,NNE,22,0.0,1.0,77,0.00,,,-99.99,WeatherLink 5.7,2013-06-23 21:51:00,
2013-06-23 18:01:00,79.1,71.3,30.11,NE,45,0.0,3.0,77,0.00,,,-99.99,WeatherLink 5.7,2013-06-23 22:01:00,
2013-06-23 18:11:00,79.0,71.6,30.11,NE,45,0.0,1.0,78,0.00,,,-99.99,WeatherLink 5.7,2013-06-23 22:11:00,
2013-06-23 18:21:00,78.8,71.0,30.10,NE,45,0.0,1.0,77,0.00,,,-99.99,WeatherLink 5.7,2013-06-23 22:21:00,
2013-06-23 18:31:00,78.7,70.9,30.11,NE,45,0.0,2.0,77,0.00,,,-99.99,WeatherLink 5.7,2013-06-23 22:31:00,
2013-06-23 18:41:00,78.7,71.3,30.10,NNE,22,0.0,2.0,78,0.00,,,-99.99,WeatherLink 5.7,2013-06-23 22:41:00,
2013-06-23 18:51:00,78.7,70.9,30.11,NE,45,0.0,3.0,77,0.00,,,-99.99,WeatherLink 5.7,2013-06-23 22:51:00,
2013-06-23 19:01:00,78.4,70.6,30.11,NE,45,0.0,1.0,77,0.00,,,-99.99,WeatherLink 5.7,2013-06-23 23:01:00,
2013-06-23 19:11:00,78.0,70.6,30.11,NE,45,0.0,1.0,78,0.00,,,-99.99,WeatherLink 5.7,2013-06-23 23:11:00,
2013-06-23 19:21:00,77.8,70.8,30.11,NE,45,0.0,1.0,79,0.00,,,-99.99,WeatherLink 5.7,2013-06-23 23:21:00,
2013-06-23 19:31:00,77.5,70.1,30.11,NE,45,0.0,1.0,78,0.00,,,-99.99,WeatherLink 5.7,2013-06-23 23:31:00,
2013-06-23 19:41:00,77.2,70.2,30.11,North,-999,0.0,0.0,79,0.00,,,-99.99,WeatherLink 5.7,2013-06-23 23:41:00,
2013-06-23 19:51:00,76.9,70.3,30.11,North,-999,0.0,0.0,80,0.00,,,-99.99,WeatherLink 5.7,2013-06-23 23:51:00,
2013-06-23 20:01:00,76.6,70.0,30.12,North,-999,0.0,0.0,80,0.00,,,-99.99,WeatherLink 5.7,2013-06-24 00:01:00,
2013-06-23 20:11:00,76.2,69.9,30.12,North,-999,0.0,0.0,81,0.00,,,-99.99,WeatherLink 5.7,2013-06-24 00:11:00,
2013-06-23 20:21:00,75.9,69.6,30.11,North,-999,0.0,0.0,81,0.00,,,-99.99,WeatherLink 5.7,2013-06-24 00:21:00,
2013-06-23 20:31:00,75.6,69.7,30.12,North,-999,0.0,0.0,82,0.00,,,-99.99,WeatherLink 5.7,2013-06-24 00:31:00,
2013-06-23 20:41:00,75.4,69.5,30.12,North,-999,0.0,0.0,82,0.00,,,-99.99,WeatherLink 5.7,2013-06-24 00:41:00,
2013-06-23 20:51:00,75.1,69.6,30.12,North,-999,0.0,0.0,83,0.00,,,-99.99,WeatherLink 5.7,2013-06-24 00:51:00,
2013-06-23 21:01:00,74.8,69.3,30.12,North,-999,0.0,0.0,83,0.00,,,-99.99,WeatherLink 5.7,2013-06-24 01:01:00,
2013-06-23 21:11:00,74.5,69.3,30.13,North,-999,0.0,0.0,84,0.00,,,-99.99,WeatherLink 5.7,2013-06-24 01:11:00,
2013-06-23 21:21:00,74.2,69.4,30.13,North,-999,0.0,0.0,85,0.00,,,-99.99,WeatherLink 5.7,2013-06-24 01:21:00,
2013-06-23 21:31:00,74.0,69.5,30.13,North,-999,0.0,0.0,86,0.00,,,-99.99,WeatherLink 5.7,2013-06-24 01:31:00,
2013-06-23 21:41:00,73.8,69.3,30.13,North,-999,0.0,0.0,86,0.00,,,-99.99,WeatherLink 5.7,2013-06-24 01:41:00,
2013-06-23 21:51:00,73.7,69.6,30.13,North,-999,0.0,0.0,87,0.00,,,-99.99,WeatherLink 5.7,2013-06-24 01:51:00,
2013-06-23 22:01:00,73.5,69.4,30.14,North,-999,0.0,0.0,87,0.00,,,-99.99,WeatherLink 5.7,2013-06-24 02:01:00,
2013-06-23 22:11:00,73.4,69.6,30.14,North,-999,0.0,0.0,88,0.00,,,-99.99,WeatherLink 5.7,2013-06-24 02:11:00,
2013-06-23 22:21:00,73.2,69.4,30.14,North,-999,0.0,0.0,88,0.00,,,-99.99,WeatherLink 5.7,2013-06-24 02:21:00,
2013-06-23 22:31:00,73.0,69.6,30.13,North,-999,0.0,0.0,89,0.00,,,-99.99,WeatherLink 5.7,2013-06-24 02:31:00,
2013-06-23 22:41:00,72.9,69.5,30.14,North,-999,0.0,0.0,89,0.00,,,-99.99,WeatherLink 5.7,2013-06-24 02:41:00,
2013-06-23 22:51:00,72.7,69.6,30.13,North,-999,0.0,0.0,90,0.00,,,-99.99,WeatherLink 5.7,2013-06-24 02:51:00,
2013-06-23 23:01:00,72.5,69.7,30.13,North,-999,0.0,0.0,91,0.00,,,-99.99,WeatherLink 5.7,2013-06-24 03:01:00,
2013-06-23 23:11:00,72.2,69.4,30.13,North,-999,0.0,0.0,91,0.00,,,-99.99,WeatherLink 5.7,2013-06-24 03:11:00,
2013-06-23 23:21:00,72.1,69.3,30.14,North,-999,0.0,0.0,91,0.00,,,-99.99,WeatherLink 5.7,2013-06-24 03:21:00,
2013-06-23 23:31:00,72.0,69.2,30.13,North,-999,0.0,0.0,91,0.00,,,-99.99,WeatherLink 5.7,2013-06-24 03:31:00,
2013-06-23 23:41:00,71.9,69.1,30.13,North,-999,0.0,0.0,91,0.00,,,-99.99,WeatherLink 5.7,2013-06-24 03:41:00,
2013-06-23 23:51:00,71.8,69.3,30.13,North,-999,0.0,0.0,92,0.00,,,-99.99,WeatherLink 5.7,2013-06-24 03:51:00,